createdAt,value
2023-03-19T00:00:29.643Z,101380.34
2023-03-19T00:02:56.548Z,101386.38
2023-03-19T00:05:23.367Z,101382.63
2023-03-19T00:07:50.124Z,101376.25
2023-03-19T00:10:16.893Z,101380.59
2023-03-19T00:12:43.631Z,101377.72
2023-03-19T00:15:14.451Z,101387.03
2023-03-19T00:17:44.694Z,101379.44
2023-03-19T00:20:12.812Z,101374.91
2023-03-19T00:22:40.078Z,101386.06
2023-03-19T00:25:08.664Z,101387.53
2023-03-19T00:27:37.434Z,101388.94
2023-03-19T00:30:06.449Z,101389.13
2023-03-19T00:32:34.225Z,101393.47
2023-03-19T00:35:01.482Z,101392.25
2023-03-19T00:37:28.564Z,101394.94
2023-03-19T00:39:56.169Z,101402.50
2023-03-19T00:42:23.118Z,101410.81
2023-03-19T00:44:49.885Z,101413.50
2023-03-19T00:47:16.866Z,101409.16
2023-03-19T00:49:43.822Z,101408.34
2023-03-19T00:52:10.832Z,101416.59
2023-03-19T00:54:40.252Z,101424.63
2023-03-19T00:57:07.854Z,101414.25
2023-03-19T00:59:34.676Z,101427.28
2023-03-19T01:02:02.292Z,101428.72
2023-03-19T01:04:29.175Z,101429.56
2023-03-19T01:06:56.276Z,101430.19
2023-03-19T01:09:23.454Z,101442.88
2023-03-19T01:11:50.394Z,101443.91
2023-03-19T01:14:17.905Z,101439.84
2023-03-19T01:16:45.155Z,101443.69
2023-03-19T01:19:13.697Z,101445.75
2023-03-19T01:21:41.064Z,101449.00
2023-03-19T01:24:07.827Z,101445.28
2023-03-19T01:26:34.628Z,101456.84
2023-03-19T01:29:17.854Z,101451.84
2023-03-19T01:31:44.991Z,101450.31
2023-03-19T01:34:43.998Z,101449.03
2023-03-19T01:37:14.477Z,101445.78
2023-03-19T01:39:42.794Z,101442.66
2023-03-19T01:42:14.823Z,101430.94
2023-03-19T01:44:58.573Z,101438.13
2023-03-19T01:47:48.343Z,101428.25
2023-03-19T01:50:42.194Z,101429.25
2023-03-19T01:53:33.083Z,101434.00
2023-03-19T01:56:21.853Z,101439.63
2023-03-19T01:59:25.704Z,101438.13
2023-03-19T02:02:31.562Z,101435.28
2023-03-19T02:05:11.400Z,101432.63
2023-03-19T02:07:41.357Z,101434.78
2023-03-19T02:10:11.933Z,101442.03
2023-03-19T02:12:39.056Z,101443.06
2023-03-19T02:15:07.318Z,101442.03
2023-03-19T02:17:34.581Z,101440.72
2023-03-19T02:20:12.912Z,101438.44
2023-03-19T02:22:44.410Z,101441.88
2023-03-19T02:25:29.723Z,101444.72
2023-03-19T02:27:57.613Z,101444.97
2023-03-19T02:30:31.939Z,101455.69
2023-03-19T02:33:05.021Z,101455.97
2023-03-19T02:35:34.759Z,101454.78
2023-03-19T02:38:04.331Z,101458.56
2023-03-19T02:40:38.444Z,101457.81
2023-03-19T02:43:05.363Z,101456.00
2023-03-19T02:45:32.741Z,101457.81
2023-03-19T02:48:00.081Z,101448.78
2023-03-19T02:50:27.443Z,101452.84
2023-03-19T02:52:54.544Z,101438.47
2023-03-19T02:55:22.217Z,101445.84
2023-03-19T02:57:49.045Z,101444.19
2023-03-19T03:00:18.761Z,101443.69
2023-03-19T03:02:46.016Z,101439.03
2023-03-19T03:05:14.368Z,101434.50
2023-03-19T03:07:43.866Z,101427.94
2023-03-19T03:10:11.819Z,101434.97
2023-03-19T03:12:38.966Z,101435.59
2023-03-19T03:15:09.398Z,101444.44
2023-03-19T03:17:40.795Z,101443.44
2023-03-19T03:20:11.545Z,101445.72
2023-03-19T03:22:39.379Z,101442.03
2023-03-19T03:25:07.369Z,101449.06
2023-03-19T03:27:34.153Z,101452.56
2023-03-19T03:30:00.990Z,101447.84
2023-03-19T03:32:27.887Z,101459.38
2023-03-19T03:34:54.643Z,101456.16
2023-03-19T03:37:21.480Z,101457.81
2023-03-19T03:39:48.319Z,101461.34
2023-03-19T03:42:15.443Z,101458.47
2023-03-19T03:44:42.318Z,101452.25
2023-03-19T03:47:09.427Z,101462.78
2023-03-19T03:49:36.318Z,101457.56
2023-03-19T03:52:03.329Z,101469.72
2023-03-19T03:54:34.022Z,101476.72
2023-03-19T03:57:03.338Z,101476.28
2023-03-19T03:59:31.191Z,101468.19
2023-03-19T04:01:58.082Z,101473.53
2023-03-19T04:04:25.527Z,101476.13
2023-03-19T04:06:52.545Z,101476.75
2023-03-19T04:09:28.764Z,101477.59
2023-03-19T04:11:55.666Z,101475.72
2023-03-19T04:14:22.502Z,101480.81
2023-03-19T04:16:49.409Z,101485.16
2023-03-19T04:19:17.002Z,101482.00
2023-03-19T04:21:44.982Z,101490.94
2023-03-19T04:24:12.062Z,101487.34
2023-03-19T04:26:39.414Z,101493.63
2023-03-19T04:29:08.503Z,101499.59
2023-03-19T04:31:35.792Z,101498.41
2023-03-19T04:34:02.673Z,101498.06
2023-03-19T04:36:29.625Z,101505.22
2023-03-19T04:38:56.932Z,101508.09
2023-03-19T04:41:23.851Z,101508.75
2023-03-19T04:44:09.606Z,101505.41
2023-03-19T04:46:39.507Z,101515.47
2023-03-19T04:49:06.321Z,101511.63
2023-03-19T04:51:33.225Z,101508.34
2023-03-19T04:54:00.448Z,101515.84
2023-03-19T04:56:27.868Z,101513.81
2023-03-19T04:58:55.203Z,101509.84
2023-03-19T05:01:21.991Z,101511.69
2023-03-19T05:04:01.493Z,101501.19
2023-03-19T05:06:29.094Z,101512.69
2023-03-19T05:08:55.906Z,101510.66
2023-03-19T05:11:23.640Z,101510.50
2023-03-19T05:14:10.650Z,101520.34
2023-03-19T05:16:56.006Z,101515.84
2023-03-19T05:19:25.273Z,101529.84
2023-03-19T05:21:53.337Z,101526.56
2023-03-19T05:24:25.143Z,101532.25
2023-03-19T05:26:53.320Z,101533.28
2023-03-19T05:29:27.979Z,101543.31
2023-03-19T05:32:14.582Z,101553.38
2023-03-19T05:34:42.430Z,101546.81
2023-03-19T05:37:09.703Z,101549.66
2023-03-19T05:39:37.335Z,101559.19
2023-03-19T05:42:08.276Z,101554.84
2023-03-19T05:44:35.519Z,101565.38
2023-03-19T05:47:37.735Z,101570.63
2023-03-19T05:50:06.018Z,101570.94
2023-03-19T05:52:32.946Z,101578.81
2023-03-19T05:55:00.670Z,101583.50
2023-03-19T05:57:38.576Z,101594.56
2023-03-19T06:00:19.692Z,101596.19
2023-03-19T06:02:48.396Z,101603.53
2023-03-19T06:05:33.694Z,101602.47
2023-03-19T06:08:20.709Z,101608.66
2023-03-19T06:11:13.544Z,101608.47
2023-03-19T06:13:43.472Z,101614.84
2023-03-19T06:16:14.631Z,101621.72
2023-03-19T06:18:48.252Z,101625.25
2023-03-19T06:21:16.569Z,101624.56
2023-03-19T06:23:44.118Z,101628.19
2023-03-19T06:26:13.706Z,101633.19
2023-03-19T06:28:52.557Z,101641.88
2023-03-19T06:31:19.982Z,101643.38
2023-03-19T06:33:52.638Z,101652.84
2023-03-19T06:36:19.958Z,101651.84
2023-03-19T06:38:47.796Z,101650.03
2023-03-19T06:41:14.623Z,101656.00
2023-03-19T06:43:42.351Z,101661.19
2023-03-19T06:46:11.530Z,101657.13
2023-03-19T06:48:38.691Z,101654.97
2023-03-19T06:51:05.966Z,101666.47
2023-03-19T06:53:32.739Z,101675.50
2023-03-19T06:55:59.537Z,101686.69
2023-03-19T06:58:27.054Z,101686.88
2023-03-19T07:00:53.817Z,101696.44
2023-03-19T07:03:20.687Z,101695.78
2023-03-19T07:05:51.166Z,101695.47
2023-03-19T07:08:18.079Z,101705.81
2023-03-19T07:10:44.915Z,101699.25
2023-03-19T07:13:11.853Z,101697.69
2023-03-19T07:15:38.597Z,101702.47
2023-03-19T07:18:05.716Z,101701.97
2023-03-19T07:20:33.502Z,101706.47
2023-03-19T07:23:00.536Z,101710.56
2023-03-19T07:25:27.464Z,101706.84
2023-03-19T07:27:56.077Z,101704.13
2023-03-19T07:30:24.286Z,101716.59
2023-03-19T07:32:51.180Z,101718.56
2023-03-19T07:35:18.179Z,101720.03
2023-03-19T07:37:45.037Z,101715.13
2023-03-19T07:40:12.184Z,101721.91
2023-03-19T07:42:39.022Z,101722.56
2023-03-19T07:45:06.353Z,101721.25
2023-03-19T07:47:33.321Z,101729.56
2023-03-19T07:50:00.087Z,101733.91
2023-03-19T07:52:27.611Z,101727.47
2023-03-19T07:54:54.448Z,101738.56
2023-03-19T07:57:21.298Z,101735.72
2023-03-19T07:59:48.077Z,101740.25
2023-03-19T08:02:14.929Z,101746.91
2023-03-19T08:04:42.190Z,101747.38
2023-03-19T08:07:11.193Z,101750.22
2023-03-19T08:09:38.047Z,101747.84
2023-03-19T08:12:05.474Z,101752.47
2023-03-19T08:14:33.152Z,101752.59
2023-03-19T08:17:00.336Z,101759.88
2023-03-19T08:19:28.267Z,101764.47
2023-03-19T08:21:55.060Z,101757.75
2023-03-19T08:24:21.915Z,101768.38
2023-03-19T08:26:48.734Z,101770.72
2023-03-19T08:29:17.290Z,101775.13
2023-03-19T08:31:45.439Z,101773.00
2023-03-19T08:34:12.187Z,101773.19
2023-03-19T08:36:39.092Z,101769.16
2023-03-19T08:39:05.880Z,101772.16
2023-03-19T08:41:32.670Z,101776.03
2023-03-19T08:43:59.426Z,101781.84
2023-03-19T08:46:27.696Z,101774.41
2023-03-19T08:48:54.705Z,101776.09
2023-03-19T08:51:22.061Z,101782.28
2023-03-19T08:53:48.800Z,101784.16
2023-03-19T08:56:15.547Z,101788.19
2023-03-19T08:58:42.807Z,101787.97
2023-03-19T09:01:11.954Z,101781.00
2023-03-19T09:03:40.293Z,101788.03
2023-03-19T09:06:09.646Z,101796.41
2023-03-19T09:08:37.331Z,101794.63
2023-03-19T09:11:05.782Z,101792.84
2023-03-19T09:13:33.137Z,101795.16
2023-03-19T09:16:00.078Z,101783.38
2023-03-19T09:18:27.194Z,101802.22
2023-03-19T09:20:54.594Z,101798.81
2023-03-19T09:23:22.350Z,101798.94
2023-03-19T09:25:49.586Z,101796.16
2023-03-19T09:28:16.753Z,101791.38
2023-03-19T09:30:46.825Z,101794.97
2023-03-19T09:33:14.209Z,101799.22
2023-03-19T09:35:41.014Z,101805.44
2023-03-19T09:38:08.097Z,101802.69
2023-03-19T09:40:47.147Z,101809.56
2023-03-19T09:43:38.708Z,101807.97
2023-03-19T09:46:13.808Z,101804.09
2023-03-19T09:48:48.437Z,101798.13
2023-03-19T09:51:22.469Z,101800.06
2023-03-19T09:54:04.544Z,101803.59
2023-03-19T09:56:32.689Z,101803.41
2023-03-19T09:58:59.930Z,101803.41
2023-03-19T10:01:41.481Z,101813.59
2023-03-19T10:04:42.594Z,101803.44
2023-03-19T10:07:52.681Z,101811.34
2023-03-19T10:10:31.210Z,101813.81
2023-03-19T10:13:31.903Z,101804.09
2023-03-19T10:16:01.623Z,101796.81
2023-03-19T10:18:34.677Z,101802.66
2023-03-19T10:21:20.146Z,101806.81
2023-03-19T10:24:05.052Z,101802.84
2023-03-19T10:26:35.884Z,101802.66
2023-03-19T10:29:16.566Z,101806.53
2023-03-19T10:32:07.531Z,101806.91
2023-03-19T10:34:37.806Z,101810.63
2023-03-19T10:37:13.579Z,101800.19
2023-03-19T10:39:43.189Z,101802.31
2023-03-19T10:42:39.415Z,101794.00
2023-03-19T10:45:15.314Z,101809.59
2023-03-19T10:47:43.832Z,101816.03
2023-03-19T10:50:19.568Z,101811.34
2023-03-19T10:52:51.748Z,101808.47
2023-03-19T10:55:25.395Z,101809.06
2023-03-19T10:58:03.206Z,101806.81
2023-03-19T11:00:35.433Z,101811.34
2023-03-19T11:03:05.604Z,101812.81
2023-03-19T11:05:34.873Z,101798.50
2023-03-19T11:08:03.489Z,101805.56
2023-03-19T11:10:33.897Z,101798.72
2023-03-19T11:13:06.218Z,101807.44
2023-03-19T11:15:37.488Z,101797.91
2023-03-19T11:18:44.786Z,101793.31
2023-03-19T11:21:31.099Z,101796.66
2023-03-19T11:24:03.336Z,101794.56
2023-03-19T11:26:31.019Z,101800.59
2023-03-19T11:29:04.693Z,101797.69
2023-03-19T11:31:50.627Z,101791.25
2023-03-19T11:34:41.517Z,101787.09
2023-03-19T11:37:29.822Z,101798.09
2023-03-19T11:40:02.057Z,101792.06
2023-03-19T11:42:50.292Z,101793.75
2023-03-19T11:45:26.333Z,101784.22
2023-03-19T11:48:06.018Z,101786.69
2023-03-19T11:50:35.905Z,101775.91
2023-03-19T11:53:27.589Z,101788.56
2023-03-19T11:56:15.251Z,101774.47
2023-03-19T11:59:01.163Z,101780.66
2023-03-19T12:01:39.738Z,101781.72
2023-03-19T12:04:45.944Z,101776.34
2023-03-19T12:07:43.270Z,101778.19
2023-03-19T12:10:48.196Z,101775.28
2023-03-19T12:13:25.723Z,101768.66
2023-03-19T12:16:16.373Z,101773.81
2023-03-19T12:18:57.160Z,101763.88
2023-03-19T12:21:24.166Z,101758.09
2023-03-19T12:24:04.449Z,101758.50
2023-03-19T12:27:00.382Z,101766.81
2023-03-19T12:29:45.223Z,101747.47
2023-03-19T12:32:35.470Z,101750.38
2023-03-19T12:35:09.134Z,101747.47
2023-03-19T12:38:01.485Z,101739.16
2023-03-19T12:40:37.421Z,101737.91
2023-03-19T12:43:14.437Z,101733.13
2023-03-19T12:45:58.182Z,101738.72
2023-03-19T12:49:09.985Z,101730.44
2023-03-19T12:51:45.566Z,101736.44
2023-03-19T12:54:18.906Z,101722.38
2023-03-19T12:56:51.188Z,101729.22
2023-03-19T12:59:30.273Z,101732.53
2023-03-19T13:02:11.446Z,101731.09
2023-03-19T13:04:53.323Z,101722.38
2023-03-19T13:07:40.498Z,101721.75
2023-03-19T13:10:17.750Z,101718.84
2023-03-19T13:12:46.429Z,101722.97
2023-03-19T13:15:22.303Z,101721.72
2023-03-19T13:17:55.679Z,101718.84
2023-03-19T13:20:44.294Z,101724.84
2023-03-19T13:23:24.561Z,101731.91
2023-03-19T13:25:54.664Z,101725.88
2023-03-19T13:28:31.214Z,101713.25
2023-03-19T13:31:05.172Z,101720.06
2023-03-19T13:33:35.150Z,101705.78
2023-03-19T13:36:05.456Z,101700.59
2023-03-19T13:38:41.462Z,101703.50
2023-03-19T13:41:39.196Z,101705.56
2023-03-19T13:44:32.395Z,101697.69
2023-03-19T13:47:23.122Z,101708.84
2023-03-19T13:50:10.890Z,101703.47
2023-03-19T13:52:46.602Z,101704.91
2023-03-19T13:55:28.350Z,101702.25
2023-03-19T13:58:16.685Z,101705.94
2023-03-19T14:00:43.498Z,101709.03
2023-03-19T14:03:22.488Z,101699.72
2023-03-19T14:05:53.611Z,101699.72
2023-03-19T14:08:24.370Z,101699.47
2023-03-19T14:10:54.515Z,101693.09
2023-03-19T14:13:34.463Z,101691.63
2023-03-19T14:16:17.840Z,101694.13
2023-03-19T14:18:44.944Z,101693.50
2023-03-19T14:21:18.932Z,101687.69
2023-03-19T14:23:55.019Z,101688.75
2023-03-19T14:26:29.324Z,101687.06
2023-03-19T14:29:04.295Z,101680.69
2023-03-19T14:31:33.935Z,101688.28
2023-03-19T14:34:19.326Z,101686.41
2023-03-19T14:36:54.873Z,101684.97
2023-03-19T14:39:25.340Z,101689.63
2023-03-19T14:42:15.447Z,101677.13
2023-03-19T14:45:14.492Z,101685.59
2023-03-19T14:47:50.595Z,101676.28
2023-03-19T14:50:35.775Z,101690.88
2023-03-19T14:53:15.033Z,101687.66
2023-03-19T14:55:42.756Z,101687.06
2023-03-19T14:58:12.972Z,101679.84
2023-03-19T15:00:49.735Z,101679.97
2023-03-19T15:03:33.073Z,101681.91
2023-03-19T15:06:02.702Z,101675.69
2023-03-19T15:08:32.424Z,101681.06
2023-03-19T15:11:14.509Z,101685.44
2023-03-19T15:14:16.481Z,101680.72
2023-03-19T15:16:46.558Z,101686.97
2023-03-19T15:19:17.576Z,101677.84
2023-03-19T15:21:44.393Z,101681.78
2023-03-19T15:24:16.605Z,101676.63
2023-03-19T15:26:43.901Z,101680.97
2023-03-19T15:29:13.786Z,101695.25
2023-03-19T15:31:57.577Z,101690.88
2023-03-19T15:34:31.316Z,101700.44
2023-03-19T15:37:04.325Z,101692.34
2023-03-19T15:39:38.028Z,101704.16
2023-03-19T15:42:05.812Z,101705.00
2023-03-19T15:44:58.587Z,101697.09
2023-03-19T15:47:31.132Z,101688.19
2023-03-19T15:50:12.667Z,101692.38
2023-03-19T15:52:43.107Z,101701.50
2023-03-19T15:55:12.688Z,101702.72
2023-03-19T15:57:41.314Z,101700.25
2023-03-19T16:00:10.071Z,101708.72
2023-03-19T16:02:46.828Z,101717.41
2023-03-19T16:05:24.165Z,101704.97
2023-03-19T16:07:59.880Z,101715.34
2023-03-19T16:10:40.423Z,101724.22
2023-03-19T16:13:24.232Z,101719.59
2023-03-19T16:16:08.627Z,101728.03
2023-03-19T16:18:53.063Z,101723.69
2023-03-19T16:21:21.936Z,101732.78
2023-03-19T16:23:54.288Z,101727.50
2023-03-19T16:26:25.714Z,101733.19
2023-03-19T16:28:59.819Z,101731.50
2023-03-19T16:31:29.870Z,101733.56
2023-03-19T16:33:57.064Z,101737.69
2023-03-19T16:36:27.802Z,101736.75
2023-03-19T16:38:58.969Z,101746.94
2023-03-19T16:41:25.764Z,101756.47
2023-03-19T16:43:53.850Z,101757.38
2023-03-19T16:46:20.766Z,101764.81
2023-03-19T16:48:47.496Z,101776.38
2023-03-19T16:51:18.398Z,101774.81
2023-03-19T16:53:47.089Z,101777.00
2023-03-19T16:56:15.980Z,101785.28
2023-03-19T16:58:46.549Z,101782.22
2023-03-19T17:01:18.037Z,101782.25
2023-03-19T17:03:47.071Z,101790.91
2023-03-19T17:06:14.982Z,101799.38
2023-03-19T17:08:42.431Z,101804.34
2023-03-19T17:11:31.059Z,101799.66
2023-03-19T17:13:59.286Z,101817.19
2023-03-19T17:16:27.620Z,101836.84
2023-03-19T17:18:54.937Z,101835.31
2023-03-19T17:21:25.218Z,101829.25
2023-03-19T17:23:52.203Z,101829.25
2023-03-19T17:26:27.824Z,101828.75
2023-03-19T17:28:56.085Z,101824.34
2023-03-19T17:31:31.782Z,101828.66
2023-03-19T17:34:12.834Z,101828.56
2023-03-19T17:36:39.983Z,101830.28
2023-03-19T17:39:07.801Z,101839.19
2023-03-19T17:41:35.687Z,101830.59
2023-03-19T17:44:05.092Z,101836.03
2023-03-19T17:46:38.144Z,101842.63
2023-03-19T17:49:05.333Z,101847.22
2023-03-19T17:51:32.132Z,101840.13
2023-03-19T17:53:59.088Z,101855.38
2023-03-19T17:56:26.199Z,101855.84
2023-03-19T17:58:53.722Z,101859.13
2023-03-19T18:01:23.376Z,101854.84
2023-03-19T18:03:51.927Z,101861.03
2023-03-19T18:06:21.700Z,101858.28
2023-03-19T18:08:48.796Z,101859.50
2023-03-19T18:11:15.728Z,101855.88
2023-03-19T18:13:43.056Z,101852.53
2023-03-19T18:16:29.952Z,101870.50
2023-03-19T18:19:01.122Z,101876.22
2023-03-19T18:21:29.012Z,101866.63
2023-03-19T18:23:57.406Z,101873.47
2023-03-19T18:26:25.431Z,101875.66
2023-03-19T18:28:52.254Z,101871.41
2023-03-19T18:31:24.160Z,101869.28
2023-03-19T18:33:55.314Z,101869.94
2023-03-19T18:36:28.379Z,101882.97
2023-03-19T18:38:55.830Z,101885.84
2023-03-19T18:41:24.654Z,101890.75
2023-03-19T18:44:12.409Z,101894.81
2023-03-19T18:46:40.900Z,101892.66
2023-03-19T18:49:28.631Z,101895.53
2023-03-19T18:52:02.775Z,101902.91
2023-03-19T18:54:31.517Z,101899.63
2023-03-19T18:57:00.264Z,101908.25
2023-03-19T18:59:32.713Z,101907.91
2023-03-19T19:02:12.093Z,101912.47
2023-03-19T19:04:38.937Z,101915.59
2023-03-19T19:07:07.084Z,101918.31
2023-03-19T19:09:33.879Z,101919.28
2023-03-19T19:12:02.057Z,101921.97
2023-03-19T19:14:28.826Z,101920.13
2023-03-19T19:16:57.041Z,101925.69
2023-03-19T19:19:25.906Z,101931.69
2023-03-19T19:21:53.045Z,101930.69
2023-03-19T19:24:21.048Z,101929.47
2023-03-19T19:26:53.370Z,101931.16
2023-03-19T19:29:29.637Z,101930.59
2023-03-19T19:31:56.623Z,101942.16
2023-03-19T19:34:23.703Z,101949.19
2023-03-19T19:36:51.244Z,101956.41
2023-03-19T19:39:18.453Z,101960.09
2023-03-19T19:41:46.698Z,101956.03
2023-03-19T19:44:20.835Z,101963.06
2023-03-19T19:46:47.895Z,101957.53
2023-03-19T19:49:15.242Z,101964.72
2023-03-19T19:51:42.050Z,101967.78
2023-03-19T19:54:08.928Z,101974.00
2023-03-19T19:56:36.462Z,101978.13
2023-03-19T19:59:06.711Z,101981.84
2023-03-19T20:01:33.486Z,101984.88
2023-03-19T20:04:00.401Z,101985.72
2023-03-19T20:06:27.639Z,101988.78
2023-03-19T20:08:55.906Z,101998.19
2023-03-19T20:11:24.580Z,101999.78
2023-03-19T20:13:55.639Z,101993.00
2023-03-19T20:16:25.954Z,102001.38
2023-03-19T20:18:54.757Z,101998.22
2023-03-19T20:21:22.750Z,101998.53
2023-03-19T20:23:53.115Z,102002.53
2023-03-19T20:26:22.477Z,102000.84
2023-03-19T20:28:50.787Z,102007.97
2023-03-19T20:31:25.059Z,102008.84
2023-03-19T20:33:52.048Z,102001.25
2023-03-19T20:36:19.618Z,102008.97
2023-03-19T20:38:46.742Z,102004.94
2023-03-19T20:41:29.032Z,101999.56
2023-03-19T20:43:56.705Z,102001.22
2023-03-19T20:46:24.700Z,101999.84
2023-03-19T20:48:51.872Z,101997.16
2023-03-19T20:51:23.126Z,102000.13
2023-03-19T20:53:51.340Z,102002.63
2023-03-19T20:56:22.136Z,102000.13
2023-03-19T20:58:49.457Z,102003.28
2023-03-19T21:01:17.769Z,102008.34
2023-03-19T21:03:44.718Z,102011.75
2023-03-19T21:06:22.771Z,102011.25
2023-03-19T21:08:57.664Z,102009.06
2023-03-19T21:11:40.871Z,102009.72
2023-03-19T21:14:16.283Z,102019.06
2023-03-19T21:16:43.063Z,102011.88
2023-03-19T21:19:09.855Z,102014.19
2023-03-19T21:21:38.831Z,102015.69
2023-03-19T21:24:14.515Z,102003.94
2023-03-19T21:26:42.559Z,102004.66
2023-03-19T21:29:19.966Z,102010.19
2023-03-19T21:31:47.901Z,102011.41
2023-03-19T21:34:14.964Z,102007.38
2023-03-19T21:36:41.849Z,102007.50
2023-03-19T21:39:08.572Z,102016.69
2023-03-19T21:41:36.632Z,102010.97
2023-03-19T21:44:07.549Z,102027.72
2023-03-19T21:46:35.166Z,102017.16
2023-03-19T21:49:01.979Z,102019.31
2023-03-19T21:51:29.534Z,102018.31
2023-03-19T21:53:56.612Z,102023.47
2023-03-19T21:56:33.457Z,102023.47
2023-03-19T21:59:03.582Z,102025.22
2023-03-19T22:01:30.465Z,102026.72
2023-03-19T22:03:57.909Z,102027.03
2023-03-19T22:06:25.786Z,102021.69
2023-03-19T22:08:54.165Z,102029.91
2023-03-19T22:11:32.694Z,102035.81
2023-03-19T22:14:19.661Z,102033.66
2023-03-19T22:16:47.780Z,102028.44
2023-03-19T22:19:17.681Z,102025.97
2023-03-19T22:21:44.855Z,102028.81
2023-03-19T22:24:11.745Z,102020.78
2023-03-19T22:26:40.848Z,102029.81
2023-03-19T22:29:20.682Z,102025.66
2023-03-19T22:31:52.157Z,102017.13
2023-03-19T22:34:22.178Z,102026.72
2023-03-19T22:36:49.663Z,102025.91
2023-03-19T22:39:16.560Z,102024.56
2023-03-19T22:41:46.629Z,102031.41
2023-03-19T22:44:23.004Z,102032.13
2023-03-19T22:46:50.253Z,102026.09
2023-03-19T22:49:17.474Z,102030.63
2023-03-19T22:51:44.236Z,102034.47
2023-03-19T22:54:14.175Z,102030.31
2023-03-19T22:56:41.075Z,102032.69
2023-03-19T22:59:07.819Z,102029.34
2023-03-19T23:01:43.551Z,102032.53
2023-03-19T23:04:21.244Z,102035.72
2023-03-19T23:06:49.441Z,102029.38
2023-03-19T23:09:29.506Z,102031.06
2023-03-19T23:11:57.831Z,102022.72
2023-03-19T23:14:32.134Z,102022.53
2023-03-19T23:17:10.302Z,102027.06
2023-03-19T23:19:38.498Z,102020.91
2023-03-19T23:22:07.486Z,102017.72
2023-03-19T23:24:34.809Z,102019.75
2023-03-19T23:27:02.459Z,102026.75
2023-03-19T23:29:34.932Z,102024.94
2023-03-19T23:32:01.942Z,102018.75
2023-03-19T23:34:28.899Z,102018.59
2023-03-19T23:36:56.754Z,102020.41
2023-03-19T23:39:24.085Z,102014.72
2023-03-19T23:41:54.659Z,102016.75
2023-03-19T23:44:22.063Z,102011.06
2023-03-19T23:46:50.810Z,102007.06
2023-03-19T23:49:30.295Z,101999.03
2023-03-19T23:51:57.557Z,102005.72
2023-03-19T23:54:28.379Z,102000.38
2023-03-19T23:56:59.935Z,101998.88
2023-03-19T23:59:35.744Z,102002.91
